Time;durP1;ratioP1;P1;durP2;ratioP2;P2;SDS_P1;SDS_P2;PMS_P1;PMS_P2;Temp;Humidity;BMP_temperature;BMP_pressure;BME280_temperature;BME280_humidity;BME280_pressure;Samples;Min_cycle;Max_cycle;Signal;HPM_P1;HPM_P2
2022/09/29 00:00:39;;;;;;;22.37;10.20;;;;;;;15.50;74.58;99583.30;124098;1098;104169;-75
2022/09/29 00:03:30;;;;;;;21.67;10.33;;;;;;;15.52;74.15;99582.43;124208;1099;104197;-74
2022/09/29 00:06:01;;;;;;;20.00;10.07;;;;;;;15.56;74.10;99583.30;124137;1099;102778;-74
2022/09/29 00:08:33;;;;;;;20.53;9.80;;;;;;;15.56;74.68;99581.53;124261;1099;104092;-75
2022/09/29 00:11:09;;;;;;;19.27;9.50;;;;;;;15.53;74.75;99578.89;124229;1099;104245;-74
2022/09/29 00:13:40;;;;;;;19.33;8.63;;;;;;;15.53;74.65;99580.66;124181;1099;104249;-75
2022/09/29 00:16:12;;;;;;;16.03;8.57;;;;;;;15.50;74.63;99576.23;124190;1099;104334;-75
2022/09/29 00:18:43;;;;;;;17.97;8.83;;;;;;;15.53;74.33;99581.53;124200;1099;104264;-75
2022/09/29 00:21:18;;;;;;;17.27;8.40;;;;;;;15.57;74.85;99585.95;124591;1099;102830;-74
2022/09/29 00:23:50;;;;;;;19.40;9.27;;;;;;;15.57;75.14;99574.50;124669;1099;104163;-74
2022/09/29 00:26:24;;;;;;;17.73;9.10;;;;;;;15.59;75.12;99575.38;124315;1098;104317;-74
2022/09/29 00:28:57;;;;;;;17.90;8.35;;;;;;;15.61;75.23;99570.95;124229;1099;104191;-75
2022/09/29 00:31:31;;;;;;;16.15;8.28;;;;;;;15.57;74.95;99562.16;124169;1099;104160;-75
2022/09/29 00:34:03;;;;;;;19.90;9.07;;;;;;;15.60;75.08;99561.28;124134;1099;104384;-75
2022/09/29 00:36:34;;;;;;;18.77;9.37;;;;;;;15.60;74.30;99567.45;124188;1099;104181;-74
2022/09/29 00:39:05;;;;;;;19.43;8.80;;;;;;;15.60;74.53;99559.52;124132;1099;104265;-75
2022/09/29 00:41:39;;;;;;;19.27;9.50;;;;;;;15.60;74.96;99562.16;124172;1099;102522;-75
2022/09/29 00:44:40;;;;;;;20.35;9.53;;;;;;;15.57;74.83;99570.09;124217;1099;102823;-75
2022/09/29 00:47:17;;;;;;;17.47;9.23;;;;;;;15.55;74.92;99565.67;124169;1099;104230;-74
2022/09/29 00:49:52;;;;;;;18.93;8.60;;;;;;;15.53;75.12;99564.80;124171;1099;104181;-75
2022/09/29 00:52:28;;;;;;;19.57;9.53;;;;;;;15.54;74.29;99561.28;124174;1102;104284;-74
2022/09/29 00:55:03;;;;;;;19.10;9.10;;;;;;;15.56;75.23;99563.02;124153;1099;104258;-74
2022/09/29 00:57:39;;;;;;;17.47;8.53;;;;;;;15.57;75.25;99563.92;124140;1099;104298;-74
2022/09/29 01:00:13;;;;;;;20.77;9.33;;;;;;;15.56;75.27;99555.09;124249;1099;104163;-75
2022/09/29 01:02:50;;;;;;;20.67;8.87;;;;;;;15.57;75.32;99564.80;124741;1099;104300;-74
2022/09/29 01:05:24;;;;;;;18.60;9.00;;;;;;;15.57;74.81;99566.57;124673;1099;104267;-74
2022/09/29 01:07:56;;;;;;;21.33;9.33;;;;;;;15.58;74.86;99565.67;124672;1099;104262;-74
2022/09/29 01:10:27;;;;;;;17.30;9.27;;;;;;;15.58;74.59;99565.67;124513;1099;102816;-75
2022/09/29 01:12:59;;;;;;;17.30;8.70;;;;;;;15.59;75.34;99570.09;124223;1099;101915;-74
2022/09/29 01:15:30;;;;;;;19.67;9.20;;;;;;;15.58;74.91;99563.02;124170;1099;104194;-74
2022/09/29 01:18:02;;;;;;;20.83;9.40;;;;;;;15.56;75.07;99570.09;124189;1099;104315;-74
2022/09/29 01:20:41;;;;;;;17.40;8.90;;;;;;;15.55;75.46;99560.38;124297;1099;102716;-75
2022/09/29 01:23:51;;;;;;;17.80;8.53;;;;;;;15.53;74.53;99556.86;124686;1099;104344;-75
2022/09/29 01:27:07;;;;;;;21.03;9.20;;;;;;;15.50;75.13;99551.58;124390;1099;104159;-75
2022/09/29 01:30:01;;;;;;;18.57;9.13;;;;;;;15.46;74.96;99548.06;124190;1099;104189;-75
2022/09/29 01:32:43;;;;;;;18.67;8.80;;;;;;;15.47;74.84;99552.44;124155;1099;104210;-74
2022/09/29 01:35:20;;;;;;;19.37;9.60;;;;;;;15.44;75.39;99552.44;124181;1099;102387;-75
2022/09/29 01:38:04;;;;;;;17.13;8.93;;;;;;;15.43;75.11;99551.57;124182;1099;102816;-75
2022/09/29 01:40:40;;;;;;;19.00;9.18;;;;;;;15.42;74.93;99555.08;124174;1099;101897;-74
2022/09/29 01:43:16;;;;;;;16.23;8.27;;;;;;;15.43;75.45;99566.56;124643;1099;102170;-75
2022/09/29 01:45:53;;;;;;;18.27;9.20;;;;;;;15.41;75.32;99555.08;124657;1099;104239;-74
2022/09/29 01:48:29;;;;;;;18.57;9.13;;;;;;;15.42;75.69;99560.37;124631;1099;101764;-74
2022/09/29 01:51:08;;;;;;;19.13;8.80;;;;;;;15.42;74.85;99560.37;124326;1099;104379;-75
2022/09/29 01:53:45;;;;;;;21.37;9.67;;;;;;;15.44;75.53;99557.73;124146;1098;104424;-75
2022/09/29 01:56:22;;;;;;;18.73;9.57;;;;;;;15.42;74.87;99565.66;124201;1099;104252;-74
2022/09/29 01:58:57;;;;;;;18.87;9.43;;;;;;;15.43;75.71;99562.14;124207;1099;102857;-74
2022/09/29 02:01:37;;;;;;;19.50;9.00;;;;;;;15.44;75.74;99574.49;124198;1099;104239;-74
2022/09/29 02:04:13;;;;;;;17.60;9.40;;;;;;;15.45;75.76;99564.79;124167;1099;104303;-74
2022/09/29 02:06:49;;;;;;;20.27;9.60;;;;;;;15.46;75.66;99566.56;124143;1099;104099;-74
2022/09/29 02:09:27;;;;;;;19.00;9.40;;;;;;;15.45;75.53;99565.66;124160;1099;104176;-74
2022/09/29 02:12:00;;;;;;;19.00;9.50;;;;;;;15.42;75.00;99562.14;124179;1099;104235;-75
2022/09/29 02:14:37;;;;;;;24.85;10.90;;;;;;;15.40;74.89;99571.84;124192;1102;104182;-74
2022/09/29 02:17:18;;;;;;;16.80;8.93;;;;;;;15.37;76.03;99567.42;124123;1099;102184;-75
2022/09/29 02:19:52;;;;;;;19.60;9.53;;;;;;;15.31;75.78;99567.41;124191;1099;104167;-75
2022/09/29 02:22:21;;;;;;;;;;;;;;;15.22;74.75;99562.11;124244;1099;104268;-75
2022/09/29 02:24:56;;;;;;;17.63;9.17;;;;;;;15.18;75.02;99557.72;124188;1102;104242;-75
2022/09/29 02:27:28;;;;;;;16.50;9.20;;;;;;;15.16;75.83;99567.37;124189;1099;104625;-75
2022/09/29 02:30:00;;;;;;;17.33;9.20;;;;;;;15.15;76.12;99568.28;124200;1099;103599;-74
2022/09/29 02:32:33;;;;;;;18.10;8.83;;;;;;;15.14;75.51;99567.37;124110;1099;104268;-75
2022/09/29 02:35:06;;;;;;;20.35;9.18;;;;;;;15.14;75.79;99569.15;124171;1099;104233;-75
2022/09/29 02:37:48;;;;;;;16.90;9.00;;;;;;;15.13;76.12;99568.28;124204;1099;104580;-74
2022/09/29 02:40:28;;;;;;;19.30;9.90;;;;;;;15.12;76.29;99565.63;124179;1099;104205;-76
2022/09/29 02:43:21;;;;;;;18.93;9.83;;;;;;;15.12;76.41;99557.70;124193;1099;104265;-75
2022/09/29 02:46:06;;;;;;;18.93;9.57;;;;;;;15.10;75.53;99558.57;124194;1099;104156;-75
2022/09/29 02:49:16;;;;;;;18.73;9.63;;;;;;;15.05;75.42;99560.33;124169;1102;104403;-75
2022/09/29 02:51:51;;;;;;;23.50;9.80;;;;;;;14.99;75.53;99555.03;124527;1099;102774;-74
2022/09/29 02:54:34;;;;;;;21.47;9.80;;;;;;;14.96;75.96;99565.59;124165;1099;101876;-75
2022/09/29 02:57:16;;;;;;;21.30;9.83;;;;;;;14.99;76.18;99562.95;124159;1099;104325;-75
2022/09/29 02:59:56;;;;;;;21.17;9.97;;;;;;;15.03;76.63;99558.55;124138;1102;104201;-75
2022/09/29 03:02:28;;;;;;;20.80;9.57;;;;;;;15.05;76.37;99562.07;124173;1099;104363;-74
2022/09/29 03:05:01;;;;;;;19.93;10.00;;;;;;;15.07;75.70;99563.84;124701;1099;104208;-74
2022/09/29 03:07:32;;;;;;;19.30;9.90;;;;;;;15.04;75.84;99566.48;124263;1102;104296;-75
2022/09/29 03:10:25;;;;;;;19.70;9.77;;;;;;;15.05;76.74;99570.00;124662;1099;104346;-74
2022/09/29 03:13:14;;;;;;;19.70;9.30;;;;;;;15.06;76.43;99570.00;124239;1099;102393;-74
2022/09/29 03:15:45;;;;;;;17.10;9.03;;;;;;;15.07;76.45;99566.48;124917;1099;104403;-76
2022/09/29 03:18:17;;;;;;;20.37;9.40;;;;;;;15.09;76.63;99570.01;124177;1099;104220;-75
2022/09/29 03:20:48;;;;;;;18.70;9.50;;;;;;;15.12;76.95;99573.56;124224;1102;104192;-76
2022/09/29 03:23:19;;;;;;;19.40;8.77;;;;;;;15.14;76.64;99577.08;124183;1099;104322;-76
2022/09/29 03:25:51;;;;;;;16.67;9.00;;;;;;;15.15;77.00;99576.21;124175;1099;104151;-76
2022/09/29 03:28:22;;;;;;;19.47;9.23;;;;;;;15.14;76.15;99564.73;124202;1099;104179;-75
2022/09/29 03:30:54;;;;;;;19.70;9.60;;;;;;;15.12;76.19;99566.50;124214;1102;103540;-75
2022/09/29 03:33:25;;;;;;;19.23;9.20;;;;;;;15.08;76.91;99568.27;124174;1102;104246;-75
2022/09/29 03:35:59;;;;;;;21.33;9.27;;;;;;;15.06;77.14;99567.36;124218;1099;104344;-75
2022/09/29 03:38:30;;;;;;;18.97;8.97;;;;;;;15.04;76.41;99563.84;124149;1102;104201;-75
2022/09/29 03:41:03;;;;;;;18.50;9.53;;;;;;;15.02;77.36;99567.34;124171;1099;104325;-75
2022/09/29 03:43:36;;;;;;;20.68;9.03;;;;;;;14.97;76.77;99564.69;124216;1099;102528;-75
2022/09/29 03:46:08;;;;;;;17.42;9.28;;;;;;;14.95;76.45;99565.59;124229;1099;101817;-75
2022/09/29 03:48:42;;;;;;;20.70;9.33;;;;;;;14.90;76.93;99560.29;124255;1099;104209;-75
2022/09/29 03:51:13;;;;;;;19.12;8.53;;;;;;;14.85;76.37;99559.37;124178;1099;104328;-75
2022/09/29 03:53:44;;;;;;;19.47;9.50;;;;;;;14.82;76.39;99552.34;124164;1099;102311;-75
2022/09/29 03:56:15;;;;;;;19.23;9.83;;;;;;;14.78;76.91;99550.55;124116;1099;104303;-75
2022/09/29 03:58:46;;;;;;;17.63;9.83;;;;;;;14.73;76.72;99547.02;124188;1099;104217;-74
2022/09/29 04:01:17;;;;;;;23.37;9.77;;;;;;;14.66;76.46;99554.05;124210;1099;101925;-75
2022/09/29 04:03:48;;;;;;;20.43;9.30;;;;;;;14.65;76.41;99564.60;124139;1099;104387;-75
2022/09/29 04:06:19;;;;;;;29.40;10.50;;;;;;;14.64;77.07;99565.47;124156;1099;102830;-75
2022/09/29 04:08:50;;;;;;;20.73;9.53;;;;;;;14.63;77.40;99561.95;124166;1099;104217;-75
2022/09/29 04:11:22;;;;;;;18.77;9.13;;;;;;;14.64;77.62;99565.47;124204;1099;104201;-74
2022/09/29 04:13:53;;;;;;;22.93;10.03;;;;;;;14.64;77.59;99568.98;124145;1099;103056;-74
2022/09/29 04:16:26;;;;;;;25.80;10.33;;;;;;;14.62;77.51;99565.46;124148;1099;104462;-74
2022/09/29 04:18:57;;;;;;;23.33;10.87;;;;;;;14.62;77.70;99557.54;124252;1099;102554;-75
2022/09/29 04:21:30;;;;;;;24.53;10.40;;;;;;;14.63;77.09;99564.59;124137;1099;104217;-74
2022/09/29 04:24:01;;;;;;;24.02;11.22;;;;;;;14.63;77.84;99561.95;124176;1099;104170;-75
2022/09/29 04:26:33;;;;;;;24.57;12.10;;;;;;;14.64;77.68;99565.47;124160;1098;104195;-75
2022/09/29 04:29:04;;;;;;;21.03;11.00;;;;;;;14.67;77.12;99558.43;124143;1099;104322;-75
2022/09/29 04:31:36;;;;;;;53.25;13.75;;;;;;;14.71;78.05;99556.70;124227;1099;102284;-75
2022/09/29 04:34:07;;;;;;;36.73;11.83;;;;;;;14.74;77.67;99556.72;124208;1099;104261;-75
2022/09/29 04:36:38;;;;;;;36.50;12.57;;;;;;;14.77;77.27;99553.19;124165;1099;102468;-75
2022/09/29 04:39:09;;;;;;;31.40;11.93;;;;;;;14.77;78.18;99550.55;124185;1099;104268;-74
2022/09/29 04:41:43;;;;;;;24.80;11.53;;;;;;;14.77;77.46;99561.98;124176;1099;102778;-75
2022/09/29 04:44:14;;;;;;;22.07;10.80;;;;;;;14.78;77.65;99554.97;124182;1099;103573;-75
2022/09/29 04:46:46;;;;;;;24.03;11.80;;;;;;;14.80;78.10;99564.63;124172;1099;104175;-74
2022/09/29 04:49:20;;;;;;;26.10;11.03;;;;;;;14.83;77.58;99569.05;124210;1098;104655;-75
2022/09/29 04:51:51;;;;;;;29.47;12.83;;;;;;;14.86;77.46;99574.34;124222;1099;104436;-75
2022/09/29 04:54:23;;;;;;;34.83;13.73;;;;;;;14.85;78.39;99575.22;124185;1099;104313;-75
2022/09/29 04:56:54;;;;;;;30.20;13.83;;;;;;;14.88;77.84;99577.87;124211;1099;102880;-75
2022/09/29 04:59:25;;;;;;;28.50;13.57;;;;;;;14.88;78.33;99577.87;124135;1099;104194;-74
2022/09/29 05:01:56;;;;;;;27.90;12.43;;;;;;;14.85;77.96;99577.86;124219;1099;102778;-75
2022/09/29 05:04:27;;;;;;;29.17;12.90;;;;;;;14.82;78.12;99589.31;124189;1099;104261;-75
2022/09/29 05:07:01;;;;;;;24.57;13.60;;;;;;;14.84;78.42;99598.11;124189;1099;104079;-75
2022/09/29 05:09:33;;;;;;;23.90;12.87;;;;;;;14.83;77.99;99584.91;124266;1099;104195;-75
2022/09/29 05:12:07;;;;;;;26.20;13.07;;;;;;;14.80;77.60;99590.17;124241;1099;104331;-75
2022/09/29 05:14:38;;;;;;;22.43;12.20;;;;;;;14.76;78.18;99586.64;124241;1099;102323;-75
2022/09/29 05:17:10;;;;;;;25.40;13.43;;;;;;;14.75;78.31;99595.44;124250;1103;104211;-74
2022/09/29 05:19:42;;;;;;;26.07;14.50;;;;;;;14.73;78.55;99599.84;124267;1102;104211;-75
2022/09/29 05:22:13;;;;;;;26.37;14.67;;;;;;;14.73;77.77;99603.34;124689;1099;104226;-74
2022/09/29 05:24:44;;;;;;;28.47;14.97;;;;;;;14.72;78.53;99598.97;124208;1099;104268;-74
2022/09/29 05:27:16;;;;;;;31.57;15.07;;;;;;;14.75;78.04;99603.36;124254;1099;104239;-74
2022/09/29 05:29:48;;;;;;;28.73;15.80;;;;;;;14.79;78.41;99609.52;124220;1099;104278;-74
2022/09/29 05:32:19;;;;;;;33.40;15.40;;;;;;;14.83;78.67;99606.91;124185;1099;104242;-74
2022/09/29 05:34:50;;;;;;;28.23;15.00;;;;;;;14.88;78.72;99606.92;124225;1099;104259;-73
2022/09/29 05:37:22;;;;;;;27.77;15.20;;;;;;;14.94;78.95;99606.07;124638;1099;104232;-73
2022/09/29 05:39:53;;;;;;;28.53;14.80;;;;;;;14.96;77.91;99599.93;124511;1099;104259;-73
2022/09/29 05:42:26;;;;;;;33.50;16.23;;;;;;;14.99;78.99;99596.39;125009;1098;104290;-73
2022/09/29 05:45:01;;;;;;;29.03;15.27;;;;;;;15.01;78.45;99595.53;124602;1099;104350;-73
2022/09/29 05:47:35;;;;;;;26.20;14.20;;;;;;;15.01;78.93;99589.37;124763;1099;103292;-74
2022/09/29 05:50:08;;;;;;;32.00;15.40;;;;;;;15.09;78.31;99604.36;124718;1099;104341;-73
2022/09/29 05:52:40;;;;;;;26.87;14.80;;;;;;;15.16;79.23;99605.28;125995;1098;104181;-74
2022/09/29 05:55:12;;;;;;;30.87;15.73;;;;;;;15.22;78.70;99601.75;124683;1099;104201;-75
2022/09/29 05:57:47;;;;;;;30.73;15.40;;;;;;;15.27;78.91;99590.32;124618;1099;102928;-74
2022/09/29 06:00:18;;;;;;;28.60;15.63;;;;;;;15.33;79.39;99586.79;124689;1099;104162;-73
2022/09/29 06:02:52;;;;;;;41.40;17.10;;;;;;;15.38;78.69;99587.70;124844;1099;104175;-76
2022/09/29 06:05:24;;;;;;;28.85;16.45;;;;;;;15.48;78.71;99587.71;124757;1099;102427;-76
2022/09/29 06:07:57;;;;;;;29.30;17.00;;;;;;;15.56;78.71;99605.33;124709;1099;104172;-76
2022/09/29 06:10:29;;;;;;;32.53;18.73;;;;;;;15.63;79.25;99601.82;124748;1099;104293;-77
2022/09/29 06:13:03;;;;;;;33.17;18.07;;;;;;;15.70;79.47;99586.83;124796;1098;104120;-77
2022/09/29 06:15:34;;;;;;;27.67;15.65;;;;;;;15.77;79.43;99590.41;124735;1099;104172;-74
2022/09/29 06:18:06;;;;;;;25.63;15.20;;;;;;;15.84;78.74;99583.34;124721;1099;102791;-75
2022/09/29 06:20:38;;;;;;;30.30;17.45;;;;;;;15.90;79.16;99588.64;124308;1099;104258;-75
2022/09/29 06:23:09;;;;;;;30.03;16.07;;;;;;;15.97;78.49;99593.92;124713;1099;104325;-75
2022/09/29 06:25:42;;;;;;;27.97;15.67;;;;;;;16.05;78.51;99585.98;124800;1099;104166;-76
2022/09/29 06:28:13;;;;;;;26.27;15.50;;;;;;;16.13;78.72;99581.55;124748;1099;102729;-74
2022/09/29 06:30:45;;;;;;;29.30;16.90;;;;;;;16.18;78.19;99585.06;124747;1099;102845;-74
2022/09/29 06:33:20;;;;;;;28.33;15.57;;;;;;;16.24;78.63;99585.95;124780;1098;104237;-76
2022/09/29 06:38:44;;;;;;;28.27;17.53;;;;;;;16.40;78.13;99587.66;124434;1099;104240;-76
2022/09/29 06:41:21;;;;;;;31.57;17.57;;;;;;;16.46;78.72;99573.53;124813;1099;104325;-76
2022/09/29 06:43:53;;;;;;;30.97;19.03;;;;;;;16.52;77.96;99576.17;125139;1099;102861;-75
2022/09/29 06:46:34;;;;;;;31.30;18.77;;;;;;;16.59;78.50;99584.96;124849;1099;102794;-75
2022/09/29 06:49:06;;;;;;;29.55;17.95;;;;;;;16.68;78.36;99588.45;124786;1099;104064;-76
2022/09/29 06:51:42;;;;;;;32.47;18.87;;;;;;;16.75;77.88;99591.98;124835;1099;104220;-77
2022/09/29 06:54:19;;;;;;;30.60;17.23;;;;;;;16.82;77.75;99582.23;124783;1099;104213;-75
2022/09/29 06:56:55;;;;;;;30.97;17.37;;;;;;;16.97;77.91;99591.89;125624;1099;103333;-75
2022/09/29 06:59:28;;;;;;;30.13;17.33;;;;;;;17.20;78.11;99591.77;125638;1098;104261;-77
2022/09/29 07:02:11;;;;;;;31.05;16.70;;;;;;;17.38;77.86;99590.79;124719;1099;104259;-77
2022/09/29 07:05:00;;;;;;;28.53;17.37;;;;;;;17.61;77.86;99587.98;124938;1099;104319;-76
2022/09/29 07:07:42;;;;;;;29.85;15.20;;;;;;;17.81;77.73;99594.88;124898;1099;101941;-77
2022/09/29 07:10:37;;;;;;;35.37;16.30;;;;;;;17.87;77.71;99589.52;124799;1099;104185;-75
2022/09/29 07:16:08;;;;;;;29.53;16.63;;;;;;;17.89;77.04;99596.63;125529;1099;104179;-77
2022/09/29 07:18:42;;;;;;;28.83;16.20;;;;;;;17.92;77.11;99599.25;125192;1099;102266;-77
2022/09/29 07:21:16;;;;;;;26.47;14.57;;;;;;;18.01;76.81;99602.70;125626;1099;102191;-76
2022/09/29 07:23:49;;;;;;;27.55;15.03;;;;;;;18.08;76.99;99596.46;124857;1099;104242;-77
2022/09/29 07:26:26;;;;;;;29.63;15.70;;;;;;;18.13;76.60;99597.28;124801;1099;104252;-76
2022/09/29 07:29:05;;;;;;;28.63;15.70;;;;;;;18.15;76.42;99584.87;124791;1099;104069;-76
2022/09/29 07:31:54;;;;;;;;;;;;;;;;;;;;;
2022/09/29 07:34:47;;;;;;;32.80;15.23;;;;;;;18.35;75.72;99594.42;125433;1099;102021;-76
2022/09/29 07:37:19;;;;;;;27.47;14.90;;;;;;;18.40;75.62;99587.27;125457;1099;104216;-76
2022/09/29 07:39:53;;;;;;;31.47;14.57;;;;;;;18.51;75.59;99595.99;124855;1099;104277;-75
2022/09/29 07:42:22;;;;;;;;;;;;;;;18.58;75.30;99592.38;124801;1099;104229;-75
2022/09/29 07:44:59;;;;;;;28.33;14.83;;;;;;;18.57;75.21;99590.61;124776;1099;104177;-75
2022/09/29 07:47:33;;;;;;;32.77;15.27;;;;;;;18.58;74.78;99584.41;124801;1099;104182;-75
2022/09/29 07:50:10;;;;;;;29.03;14.53;;;;;;;18.63;75.20;99582.57;124802;1099;102794;-75
2022/09/29 07:52:47;;;;;;;23.60;13.80;;;;;;;18.75;74.96;99589.53;124836;1099;102470;-77
2022/09/29 07:55:22;;;;;;;27.70;14.47;;;;;;;18.85;74.97;99593.88;124812;1099;104162;-76
2022/09/29 07:58:10;;;;;;;29.87;15.63;;;;;;;18.94;74.30;99587.55;124901;1099;104195;-79
2022/09/29 08:00:59;;;;;;;35.57;14.93;;;;;;;19.10;74.27;99582.02;125633;1099;109810;-79
2022/09/29 08:03:32;;;;;;;25.27;13.57;;;;;;;19.23;73.87;99594.26;125679;1099;104185;-79
2022/09/29 08:06:07;;;;;;;25.92;13.93;;;;;;;19.34;73.65;99588.78;125057;1099;104163;-77
2022/09/29 08:08:43;;;;;;;26.00;12.80;;;;;;;19.43;74.07;99585.09;124816;1099;103060;-79
2022/09/29 08:11:16;;;;;;;26.47;13.77;;;;;;;19.53;73.66;99578.73;124335;1099;104208;-78
2022/09/29 08:13:51;;;;;;;24.70;13.77;;;;;;;19.49;71.93;99580.55;124872;1099;102258;-77
2022/09/29 08:16:26;;;;;;;23.23;13.57;;;;;;;19.51;73.00;99586.74;124436;1102;104366;-80
2022/09/29 08:19:06;;;;;;;24.53;13.70;;;;;;;19.58;72.39;99584.86;125280;1099;102903;-77
2022/09/29 08:21:42;;;;;;;23.70;13.10;;;;;;;19.68;72.44;99596.22;124803;1099;108605;-77
2022/09/29 08:24:19;;;;;;;26.07;14.45;;;;;;;19.84;72.04;99594.25;125635;1098;104169;-76
2022/09/29 08:26:51;;;;;;;29.37;14.10;;;;;;;20.05;71.67;99596.52;125643;1099;104677;-76
2022/09/29 08:29:23;;;;;;;26.37;14.20;;;;;;;20.23;71.95;99589.13;124822;1099;104157;-76
2022/09/29 08:31:55;;;;;;;28.30;12.83;;;;;;;20.42;71.31;99585.19;124711;1099;118913;-75
2022/09/29 08:34:27;;;;;;;23.15;12.70;;;;;;;20.48;70.44;99594.86;124714;1099;102807;-76
2022/09/29 08:36:59;;;;;;;23.73;12.77;;;;;;;20.44;70.50;99588.72;124763;1099;104236;-75
2022/09/29 08:39:34;;;;;;;23.43;12.90;;;;;;;20.61;71.19;99592.83;124718;1099;102939;-75
2022/09/29 08:42:15;;;;;;;25.17;13.10;;;;;;;20.74;69.65;99596.15;124853;1099;102362;-77
2022/09/29 08:44:57;;;;;;;25.20;11.67;;;;;;;20.76;69.17;99587.22;124846;1098;102855;-76
2022/09/29 08:47:35;;;;;;;23.23;12.10;;;;;;;20.75;69.57;99590.78;124780;1099;104173;-76
2022/09/29 08:50:15;;;;;;;24.50;10.87;;;;;;;20.79;68.68;99594.29;124814;1099;102778;-77
2022/09/29 08:52:53;;;;;;;21.63;10.90;;;;;;;20.92;69.27;99597.57;124378;1100;104192;-76
2022/09/29 08:55:33;;;;;;;19.37;10.30;;;;;;;21.14;68.99;99593.51;124430;1099;104300;-76
2022/09/29 08:58:11;;;;;;;19.63;10.33;;;;;;;21.38;68.64;99588.55;124765;1099;104235;-76
2022/09/29 09:00:50;;;;;;;20.60;10.07;;;;;;;21.65;68.53;99595.05;124701;1099;104734;-76
2022/09/29 09:03:48;;;;;;;19.83;9.40;;;;;;;21.76;67.65;99584.11;124793;1099;102741;-76
2022/09/29 09:06:31;;;;;;;18.13;9.33;;;;;;;21.74;67.40;99577.94;124750;1098;104175;-74
2022/09/29 09:09:30;;;;;;;21.70;9.70;;;;;;;21.70;67.01;99581.59;124776;1098;104229;-76
2022/09/29 09:12:21;;;;;;;18.93;9.10;;;;;;;21.77;66.65;99580.53;124446;1099;104351;-75
2022/09/29 09:15:09;;;;;;;20.07;9.30;;;;;;;21.77;66.52;99577.86;124259;1099;102328;-76
2022/09/29 09:17:59;;;;;;;16.77;8.77;;;;;;;21.84;65.98;99575.91;124359;1099;102730;-74
2022/09/29 09:20:35;;;;;;;17.63;8.10;;;;;;;21.95;65.56;99571.16;124738;1099;103271;-74
2022/09/29 09:23:20;;;;;;;14.90;7.43;;;;;;;21.98;64.57;99572.88;124791;1099;104217;-74
2022/09/29 09:25:55;;;;;;;16.70;7.40;;;;;;;22.00;65.20;99573.71;124712;1098;104252;-76
2022/09/29 09:28:33;;;;;;;16.60;7.60;;;;;;;21.92;65.61;99587.27;125308;1099;104280;-76
2022/09/29 09:31:16;;;;;;;14.30;7.00;;;;;;;21.85;65.26;99596.36;125594;1099;104162;-76
2022/09/29 09:33:57;;;;;;;16.23;6.90;;;;;;;21.73;64.92;99593.06;125652;1099;104150;-76
2022/09/29 09:36:35;;;;;;;15.67;7.20;;;;;;;21.79;64.60;99602.72;125627;1099;104159;-76
2022/09/29 09:39:22;;;;;;;15.40;7.77;;;;;;;21.79;64.46;99604.53;125643;1099;104273;-76
2022/09/29 09:41:59;;;;;;;17.67;7.70;;;;;;;21.78;64.01;99614.31;124806;1099;104175;-76
2022/09/29 09:44:37;;;;;;;16.00;7.33;;;;;;;21.77;64.25;99604.56;124825;1099;104044;-75
2022/09/29 09:47:23;;;;;;;15.90;7.47;;;;;;;21.82;64.39;99607.13;124816;1099;104259;-74
2022/09/29 09:50:00;;;;;;;14.17;7.80;;;;;;;21.88;63.97;99601.62;124863;1099;102769;-77
2022/09/29 09:52:42;;;;;;;16.03;6.97;;;;;;;21.96;64.07;99599.63;124896;1099;102969;-77
2022/09/29 09:55:18;;;;;;;18.27;7.40;;;;;;;22.10;64.05;99593.94;124892;1099;102098;-77
2022/09/29 09:58:09;;;;;;;17.07;7.60;;;;;;;22.25;63.60;99590.86;124850;1099;103594;-77
2022/09/29 10:00:46;;;;;;;16.40;7.17;;;;;;;22.44;63.65;99593.94;124724;1099;104175;-76
2022/09/29 10:03:19;;;;;;;14.97;7.03;;;;;;;22.70;63.33;99594.12;124727;1099;104189;-77
2022/09/29 10:05:51;;;;;;;16.95;7.80;;;;;;;22.88;62.87;99596.27;124408;1098;103196;-77
2022/09/29 10:08:26;;;;;;;11.57;5.93;;;;;;;23.02;62.19;99595.86;124490;1099;104185;-78
2022/09/29 10:11:00;;;;;;;15.27;6.53;;;;;;;23.06;62.32;99586.83;124777;1099;104048;-77
2022/09/29 10:13:38;;;;;;;11.90;5.90;;;;;;;23.07;62.14;99591.23;124714;1099;104204;-76
2022/09/29 10:16:16;;;;;;;14.55;6.80;;;;;;;23.10;61.75;99587.64;124808;1099;104184;-77
2022/09/29 10:18:51;;;;;;;16.67;6.37;;;;;;;23.08;61.43;99592.13;124778;1099;104182;-77
2022/09/29 10:21:35;;;;;;;15.50;6.70;;;;;;;23.06;61.54;99589.50;124763;1099;104166;-76
2022/09/29 10:24:20;;;;;;;11.60;6.22;;;;;;;23.07;61.14;99593.91;124779;1099;103265;-74
2022/09/29 10:27:01;;;;;;;16.63;6.10;;;;;;;23.14;60.96;99591.98;124837;1099;104229;-75
2022/09/29 10:29:44;;;;;;;11.27;5.80;;;;;;;23.18;61.27;99593.62;124778;1099;103568;-76
2022/09/29 10:32:35;;;;;;;15.05;6.90;;;;;;;23.17;60.60;99590.99;124782;1099;104236;-76
2022/09/29 10:35:17;;;;;;;13.27;6.20;;;;;;;23.24;60.80;99598.78;124771;1099;104252;-77
2022/09/29 10:38:00;;;;;;;10.40;5.77;;;;;;;23.39;60.41;99602.80;124909;1099;104201;-77
2022/09/29 10:40:35;;;;;;;11.87;5.40;;;;;;;23.47;60.99;99594.53;124912;1099;104229;-77
2022/09/29 10:43:28;;;;;;;8.08;5.10;;;;;;;23.71;59.74;99594.66;116152;1099;10001354;-76
2022/09/29 10:46:01;;;;;;;13.03;5.40;;;;;;;23.84;59.94;99587.98;124906;1099;104310;-76
2022/09/29 10:48:33;;;;;;;10.33;5.20;;;;;;;23.83;59.59;99592.44;124801;1099;104163;-77
2022/09/29 10:51:24;;;;;;;10.07;4.67;;;;;;;23.79;59.25;99579.20;126004;1098;102487;-78
2022/09/29 10:54:07;;;;;;;14.13;6.00;;;;;;;23.76;59.20;99585.52;124830;1099;102978;-76
2022/09/29 10:56:49;;;;;;;12.20;5.70;;;;;;;23.85;59.15;99584.39;124781;1099;103217;-77
2022/09/29 10:59:26;;;;;;;10.03;4.85;;;;;;;24.04;58.67;99571.23;124955;1099;104340;-76
2022/09/29 11:02:01;;;;;;;12.03;5.20;;;;;;;24.15;58.24;99577.12;124875;1099;104236;-77
2022/09/29 11:04:42;;;;;;;18.23;6.70;;;;;;;24.24;58.53;99565.17;124843;1099;104159;-78
2022/09/29 11:07:20;;;;;;;11.73;5.27;;;;;;;24.27;57.87;99565.06;124858;1099;102759;-75
2022/09/29 11:09:53;;;;;;;14.23;4.90;;;;;;;24.27;57.50;99562.39;124838;1099;102523;-77
2022/09/29 11:12:38;;;;;;;10.17;4.77;;;;;;;24.29;57.62;99557.84;124907;1099;104162;-77
2022/09/29 11:15:30;;;;;;;15.10;5.80;;;;;;;24.28;57.24;99566.83;124848;1099;109384;-77
2022/09/29 11:18:13;;;;;;;11.97;5.23;;;;;;;24.29;57.31;99557.84;125918;1099;102365;-77
2022/09/29 11:20:48;;;;;;;10.65;4.95;;;;;;;24.31;57.46;99556.00;124888;1099;104150;-78
2022/09/29 11:23:35;;;;;;;11.43;4.90;;;;;;;24.29;56.54;99552.48;124904;1099;104153;-80
2022/09/29 11:26:33;;;;;;;11.00;5.00;;;;;;;24.28;56.75;99539.13;125762;1099;104182;-80
2022/09/29 11:29:29;;;;;;;9.97;4.80;;;;;;;24.19;56.68;99530.50;125693;1099;102144;-78
2022/09/29 11:32:40;;;;;;;12.20;4.83;;;;;;;24.15;56.54;99541.38;124986;1099;102843;-78
2022/09/29 11:35:39;;;;;;;13.37;4.30;;;;;;;24.08;56.78;99537.19;124867;1099;103306;-78
2022/09/29 11:38:47;;;;;;;13.33;4.97;;;;;;;24.02;56.08;99544.48;124928;1099;102758;-78
2022/09/29 11:45:17;;;;;;;13.50;4.50;;;;;;;24.02;56.21;99547.17;126152;1098;104225;-80
2022/09/29 11:48:21;;;;;;;10.15;4.25;;;;;;;23.96;56.30;99544.70;125008;1099;104293;-78
2022/09/29 11:51:10;;;;;;;16.40;4.70;;;;;;;23.90;56.24;99539.55;125662;1099;104218;-78
2022/09/29 11:54:14;;;;;;;17.33;4.70;;;;;;;23.83;56.38;99530.83;125010;1098;104159;-79
2022/09/29 11:57:05;;;;;;;9.67;4.30;;;;;;;23.86;56.12;99527.22;125487;1098;104200;-80
2022/09/29 12:00:08;;;;;;;13.23;4.00;;;;;;;23.97;56.04;99516.13;124432;1099;104243;-79
2022/09/29 12:03:29;;;;;;;6.83;4.10;;;;;;;24.22;55.97;99508.94;125755;1099;102820;-80